createdAt,value
2024-03-24T00:00:33.636Z,1.30
2024-03-24T00:01:33.693Z,1.30
2024-03-24T00:02:33.733Z,1.20
2024-03-24T00:03:33.787Z,1.40
2024-03-24T00:04:33.834Z,1.70
2024-03-24T00:05:33.887Z,1.40
2024-03-24T00:06:33.930Z,1.10
2024-03-24T00:07:33.978Z,1.30
2024-03-24T00:08:34.035Z,1.40
2024-03-24T00:09:34.079Z,1.10
2024-03-24T00:10:34.126Z,1.50
2024-03-24T00:11:34.177Z,1.30
2024-03-24T00:12:34.227Z,1.30
2024-03-24T00:13:34.274Z,1.60
2024-03-24T00:14:34.324Z,1.20
2024-03-24T00:15:34.368Z,1.40
2024-03-24T00:16:34.426Z,0.90
2024-03-24T00:17:34.479Z,1.10
2024-03-24T00:18:34.526Z,0.90
2024-03-24T00:19:34.565Z,1.40
2024-03-24T00:20:34.618Z,1.30
2024-03-24T00:21:34.667Z,1.00
2024-03-24T00:22:34.721Z,1.20
2024-03-24T00:23:34.769Z,1.10
2024-03-24T00:24:34.815Z,1.20
2024-03-24T00:25:34.864Z,1.20
2024-03-24T00:26:34.914Z,1.50
2024-03-24T00:27:34.963Z,1.20
2024-03-24T00:28:35.014Z,1.10
2024-03-24T00:29:35.062Z,1.50
2024-03-24T00:30:35.105Z,1.10
2024-03-24T00:31:35.159Z,1.10
2024-03-24T00:32:35.206Z,1.10
2024-03-24T00:33:35.265Z,1.60
2024-03-24T00:34:35.314Z,1.00
2024-03-24T00:35:35.348Z,1.00
2024-03-24T00:36:35.404Z,1.00
2024-03-24T00:37:35.455Z,1.20
2024-03-24T00:38:35.504Z,1.50
2024-03-24T00:39:35.549Z,1.20
2024-03-24T00:40:35.598Z,1.00
2024-03-24T00:41:35.654Z,1.10
2024-03-24T00:42:35.696Z,0.90
2024-03-24T00:43:35.741Z,0.90
2024-03-24T00:44:35.797Z,1.10
2024-03-24T00:45:35.839Z,1.40
2024-03-24T00:46:35.901Z,1.30
2024-03-24T00:47:35.939Z,1.10
2024-03-24T00:48:35.991Z,1.00
2024-03-24T00:49:36.053Z,0.90
2024-03-24T00:50:36.089Z,1.10
2024-03-24T00:51:36.144Z,1.00
2024-03-24T00:52:36.194Z,0.90
2024-03-24T00:53:36.235Z,1.10
2024-03-24T00:54:36.287Z,1.10
2024-03-24T00:55:36.334Z,0.80
2024-03-24T00:56:36.381Z,1.10
2024-03-24T00:57:36.433Z,1.00
2024-03-24T00:58:36.486Z,0.90
2024-03-24T00:59:36.531Z,1.50
2024-03-24T01:00:36.577Z,0.80
2024-03-24T01:01:36.639Z,0.80
2024-03-24T01:02:36.678Z,0.80
2024-03-24T01:03:36.732Z,1.00
2024-03-24T01:04:36.807Z,1.00
2024-03-24T01:05:36.831Z,1.00
2024-03-24T01:06:36.894Z,1.20
2024-03-24T01:07:36.933Z,1.00
2024-03-24T01:08:36.969Z,1.10
2024-03-24T01:09:37.029Z,0.90
2024-03-24T01:10:37.073Z,1.00
2024-03-24T01:11:37.118Z,0.80
2024-03-24T01:12:37.172Z,0.80
2024-03-24T01:13:37.219Z,0.70
2024-03-24T01:14:37.266Z,0.90
2024-03-24T01:15:37.322Z,1.00
2024-03-24T01:16:37.370Z,0.90
2024-03-24T01:17:37.412Z,0.90
2024-03-24T01:18:37.465Z,1.10
2024-03-24T01:19:37.931Z,0.90
2024-03-24T01:20:37.559Z,0.80
2024-03-24T01:21:37.643Z,0.70
2024-03-24T01:22:37.656Z,0.90
2024-03-24T01:23:37.711Z,0.70
2024-03-24T01:24:37.757Z,1.20
2024-03-24T01:25:37.810Z,1.10
2024-03-24T01:26:37.867Z,0.70
2024-03-24T01:27:37.907Z,0.80
2024-03-24T01:28:37.960Z,0.70
2024-03-24T01:29:38.004Z,0.80
2024-03-24T01:30:38.049Z,0.80
2024-03-24T01:31:38.102Z,0.80
2024-03-24T01:32:38.155Z,0.80
2024-03-24T01:33:38.212Z,0.70
2024-03-24T01:34:38.274Z,0.80
2024-03-24T01:35:38.301Z,0.80
2024-03-24T01:36:38.346Z,0.70
2024-03-24T01:37:38.413Z,0.90
2024-03-24T01:38:38.455Z,1.20
2024-03-24T01:39:38.494Z,0.70
2024-03-24T01:40:38.541Z,1.10
2024-03-24T01:41:38.614Z,0.80
2024-03-24T01:42:38.640Z,0.80
2024-03-24T01:43:38.692Z,0.90
2024-03-24T01:44:38.741Z,0.80
2024-03-24T01:45:38.791Z,0.80
2024-03-24T01:46:38.848Z,0.80
2024-03-24T01:47:38.893Z,0.80
2024-03-24T01:48:38.941Z,0.90
2024-03-24T01:49:38.999Z,0.90
2024-03-24T01:50:39.045Z,0.90
2024-03-24T01:51:39.091Z,1.00
2024-03-24T01:52:39.140Z,0.80
2024-03-24T01:53:39.191Z,0.80
2024-03-24T01:54:39.231Z,0.90
2024-03-24T01:55:39.275Z,0.60
2024-03-24T01:56:39.326Z,1.00
2024-03-24T01:57:39.379Z,0.80
2024-03-24T01:58:39.437Z,0.90
2024-03-24T01:59:39.474Z,1.00
2024-03-24T02:00:39.528Z,0.90
2024-03-24T02:01:39.579Z,0.80
2024-03-24T02:02:39.622Z,1.10
2024-03-24T02:03:39.682Z,0.70
2024-03-24T02:04:39.751Z,0.80
2024-03-24T02:05:39.775Z,1.00
2024-03-24T02:06:39.819Z,1.10
2024-03-24T02:07:39.865Z,0.90
2024-03-24T02:08:39.920Z,1.00
2024-03-24T02:09:39.985Z,0.50
2024-03-24T02:10:40.027Z,1.10
2024-03-24T02:11:40.077Z,0.90
2024-03-24T02:12:40.110Z,1.00
2024-03-24T02:13:40.165Z,1.00
2024-03-24T02:14:40.214Z,0.80
2024-03-24T02:15:40.260Z,0.60
2024-03-24T02:16:40.308Z,1.60
2024-03-24T02:17:40.358Z,0.70
2024-03-24T02:18:40.640Z,0.70
2024-03-24T02:19:40.462Z,0.80
2024-03-24T02:20:40.506Z,1.40
2024-03-24T02:21:40.559Z,0.90
2024-03-24T02:22:40.608Z,1.00
2024-03-24T02:23:40.653Z,0.80
2024-03-24T02:24:40.703Z,0.90
2024-03-24T02:25:40.764Z,0.80
2024-03-24T02:26:40.801Z,1.20
2024-03-24T02:27:40.848Z,1.10
2024-03-24T02:28:40.898Z,0.80
2024-03-24T02:29:40.946Z,0.70
2024-03-24T02:30:40.996Z,0.90
2024-03-24T02:31:41.044Z,0.80
2024-03-24T02:32:41.097Z,0.90
2024-03-24T02:33:41.139Z,0.90
2024-03-24T02:34:41.197Z,0.90
2024-03-24T02:35:41.241Z,1.10
2024-03-24T02:36:41.292Z,1.00
2024-03-24T02:37:41.340Z,1.00
2024-03-24T02:38:41.392Z,1.00
2024-03-24T02:39:41.434Z,1.10
2024-03-24T02:40:41.486Z,0.90
2024-03-24T02:41:41.544Z,0.90
2024-03-24T02:42:41.590Z,0.80
2024-03-24T02:43:41.631Z,1.10
2024-03-24T02:44:41.690Z,0.80
2024-03-24T02:45:41.750Z,0.80
2024-03-24T02:46:41.780Z,1.10
2024-03-24T02:47:41.832Z,1.10
2024-03-24T02:48:41.879Z,1.00
2024-03-24T02:49:41.929Z,1.10
2024-03-24T02:50:41.972Z,1.10
2024-03-24T02:51:42.043Z,1.40
2024-03-24T02:52:42.070Z,1.10
2024-03-24T02:53:42.123Z,1.30
2024-03-24T02:54:42.173Z,0.90
2024-03-24T02:55:42.221Z,0.90
2024-03-24T02:56:42.269Z,1.20
2024-03-24T02:57:42.326Z,0.90
2024-03-24T02:58:42.386Z,0.90
2024-03-24T02:59:42.416Z,1.20
2024-03-24T03:00:42.463Z,0.80
2024-03-24T03:01:42.520Z,1.30
2024-03-24T03:02:42.576Z,1.10
2024-03-24T03:03:42.614Z,1.10
2024-03-24T03:04:42.672Z,1.00
2024-03-24T03:05:42.731Z,1.00
2024-03-24T03:06:42.777Z,0.90
2024-03-24T03:07:42.810Z,1.10
2024-03-24T03:08:42.857Z,1.40
2024-03-24T03:09:42.908Z,1.30
2024-03-24T03:10:42.974Z,1.20
2024-03-24T03:11:43.004Z,1.30
2024-03-24T03:12:43.054Z,1.10
2024-03-24T03:13:43.110Z,1.30
2024-03-24T03:14:43.157Z,1.30
2024-03-24T03:15:43.195Z,1.00
2024-03-24T03:16:43.246Z,1.30
2024-03-24T03:17:43.296Z,1.30
2024-03-24T03:18:43.348Z,1.20
2024-03-24T03:19:43.397Z,0.90
2024-03-24T03:20:43.447Z,1.10
2024-03-24T03:21:43.502Z,1.30
2024-03-24T03:22:43.545Z,1.20
2024-03-24T03:23:43.594Z,1.20
2024-03-24T03:24:43.643Z,1.00
2024-03-24T03:25:43.689Z,0.90
2024-03-24T03:26:43.740Z,1.20
2024-03-24T03:27:43.790Z,1.30
2024-03-24T03:28:43.832Z,0.90
2024-03-24T03:29:43.891Z,0.90
2024-03-24T03:30:43.945Z,1.20
2024-03-24T03:31:43.982Z,1.20
2024-03-24T03:32:44.035Z,1.40
2024-03-24T03:33:44.089Z,1.30
2024-03-24T03:34:44.137Z,1.40
2024-03-24T03:35:44.179Z,1.40
2024-03-24T03:36:44.227Z,1.20
2024-03-24T03:37:44.278Z,1.00
2024-03-24T03:38:44.322Z,1.00
2024-03-24T03:39:44.379Z,1.10
2024-03-24T03:40:44.424Z,1.60
2024-03-24T03:41:44.473Z,1.10
2024-03-24T03:42:44.521Z,1.10
2024-03-24T03:43:44.577Z,1.20
2024-03-24T03:44:44.619Z,1.20
2024-03-24T03:45:44.697Z,1.20
2024-03-24T03:46:44.723Z,1.30
2024-03-24T03:47:44.768Z,1.80
2024-03-24T03:48:44.815Z,1.30
2024-03-24T03:49:44.870Z,1.40
2024-03-24T03:50:44.915Z,1.40
2024-03-24T03:51:44.959Z,1.70
2024-03-24T03:52:45.017Z,1.10
2024-03-24T03:53:45.061Z,1.10
2024-03-24T03:54:45.110Z,1.40
2024-03-24T03:55:45.161Z,1.10
2024-03-24T03:56:45.220Z,1.40
2024-03-24T03:57:45.258Z,1.20
2024-03-24T03:58:45.311Z,1.30
2024-03-24T03:59:45.359Z,1.70
2024-03-24T04:00:45.435Z,1.20
2024-03-24T04:01:45.471Z,1.30
2024-03-24T04:02:45.500Z,1.10
2024-03-24T04:03:45.553Z,1.20
2024-03-24T04:04:45.606Z,1.20
2024-03-24T04:05:45.665Z,1.10
2024-03-24T04:06:45.705Z,1.30
2024-03-24T04:07:45.756Z,1.40
2024-03-24T04:08:45.809Z,1.40
2024-03-24T04:09:45.846Z,1.40
2024-03-24T04:10:45.897Z,1.20
2024-03-24T04:11:45.944Z,1.30
2024-03-24T04:12:45.996Z,0.80
2024-03-24T04:13:46.038Z,1.30
2024-03-24T04:14:46.095Z,1.20
2024-03-24T04:15:46.139Z,1.20
2024-03-24T04:16:46.190Z,1.50
2024-03-24T04:17:46.252Z,1.30
2024-03-24T04:18:46.291Z,1.20
2024-03-24T04:19:46.348Z,1.30
2024-03-24T04:20:46.390Z,1.10
2024-03-24T04:21:46.436Z,1.40
2024-03-24T04:22:46.487Z,1.40
2024-03-24T04:23:46.534Z,1.40
2024-03-24T04:24:46.579Z,1.40
2024-03-24T04:25:46.654Z,1.40
2024-03-24T04:26:46.681Z,1.20
2024-03-24T04:27:46.740Z,1.20
2024-03-24T04:28:46.791Z,1.50
2024-03-24T04:29:46.829Z,1.10
2024-03-24T04:30:46.878Z,1.10
2024-03-24T04:31:46.935Z,1.30
2024-03-24T04:32:47.002Z,1.20
2024-03-24T04:33:47.038Z,1.40
2024-03-24T04:34:47.077Z,1.70
2024-03-24T04:35:47.131Z,1.40
2024-03-24T04:36:47.170Z,1.00
2024-03-24T04:37:47.220Z,1.40
2024-03-24T04:38:47.276Z,1.30
2024-03-24T04:39:47.333Z,1.20
2024-03-24T04:40:47.365Z,1.20
2024-03-24T04:41:47.414Z,1.70
2024-03-24T04:42:47.477Z,1.20
2024-03-24T04:43:47.516Z,1.50
2024-03-24T04:44:47.561Z,1.20
2024-03-24T04:45:47.609Z,1.30
2024-03-24T04:46:47.664Z,1.30
2024-03-24T04:47:47.719Z,1.30
2024-03-24T04:48:47.759Z,1.40
2024-03-24T04:49:47.823Z,1.10
2024-03-24T04:50:47.853Z,1.40
2024-03-24T04:51:47.904Z,1.40
2024-03-24T04:52:47.949Z,1.40
2024-03-24T04:53:48.014Z,1.50
2024-03-24T04:54:48.055Z,1.50
2024-03-24T04:55:48.100Z,1.70
2024-03-24T04:56:48.148Z,1.40
2024-03-24T04:57:48.206Z,1.40
2024-03-24T04:58:48.244Z,1.60
2024-03-24T04:59:48.299Z,1.20
2024-03-24T05:00:48.345Z,1.70
2024-03-24T05:01:48.394Z,1.20
2024-03-24T05:02:48.450Z,1.20
2024-03-24T05:03:48.494Z,1.30
2024-03-24T05:04:48.538Z,1.00
2024-03-24T05:05:48.610Z,1.30
2024-03-24T05:06:48.638Z,1.40
2024-03-24T05:07:48.693Z,1.20
2024-03-24T05:08:48.738Z,1.10
2024-03-24T05:09:48.792Z,1.10
2024-03-24T05:10:48.834Z,1.60
2024-03-24T05:11:48.913Z,1.50
2024-03-24T05:12:48.931Z,1.20
2024-03-24T05:13:48.982Z,1.00
2024-03-24T05:14:49.032Z,1.00
2024-03-24T05:15:49.078Z,1.10
2024-03-24T05:16:49.135Z,1.30
2024-03-24T05:17:49.179Z,1.30
2024-03-24T05:18:49.232Z,1.40
2024-03-24T05:19:49.278Z,1.30
2024-03-24T05:20:49.324Z,1.40
2024-03-24T05:21:49.398Z,1.50
2024-03-24T05:22:49.419Z,1.30
2024-03-24T05:23:49.471Z,1.40
2024-03-24T05:24:49.515Z,1.30
2024-03-24T05:25:49.565Z,1.30
2024-03-24T05:26:49.622Z,1.50
2024-03-24T05:27:49.669Z,1.20
2024-03-24T05:28:55.688Z,1.30
2024-03-24T05:29:49.766Z,1.10
2024-03-24T05:30:49.817Z,1.10
2024-03-24T05:31:49.868Z,1.40
2024-03-24T05:32:49.916Z,1.50
2024-03-24T05:33:49.960Z,1.40
2024-03-24T05:34:50.012Z,1.40
2024-03-24T05:35:50.049Z,1.30
2024-03-24T05:36:50.106Z,1.60
2024-03-24T05:37:50.167Z,1.70
2024-03-24T05:38:50.206Z,1.20
2024-03-24T05:39:50.254Z,1.10
2024-03-24T05:40:50.304Z,0.90
2024-03-24T05:41:50.353Z,1.50
2024-03-24T05:42:50.396Z,1.50
2024-03-24T05:43:50.451Z,1.50
2024-03-24T05:44:50.491Z,1.20
2024-03-24T05:45:50.543Z,1.20
2024-03-24T05:46:50.594Z,1.30
2024-03-24T05:47:50.641Z,0.90
2024-03-24T05:48:50.691Z,1.50
2024-03-24T05:49:50.741Z,1.30
2024-03-24T05:50:50.788Z,1.40
2024-03-24T05:51:50.834Z,1.40
2024-03-24T05:52:50.883Z,1.50
2024-03-24T05:53:50.946Z,1.40
2024-03-24T05:54:50.984Z,1.30
2024-03-24T05:55:51.026Z,1.40
2024-03-24T05:56:51.079Z,1.20
2024-03-24T05:57:51.126Z,1.70
2024-03-24T05:58:51.179Z,1.50
2024-03-24T05:59:51.223Z,1.40
2024-03-24T06:00:51.278Z,1.30
2024-03-24T06:01:51.325Z,1.70
2024-03-24T06:02:51.379Z,1.50
2024-03-24T06:03:51.422Z,1.20
2024-03-24T06:04:51.464Z,1.20
2024-03-24T06:05:51.516Z,1.30
2024-03-24T06:06:51.574Z,1.40
2024-03-24T06:07:51.618Z,1.50
2024-03-24T06:08:51.661Z,1.40
2024-03-24T06:09:51.723Z,1.30
2024-03-24T06:10:51.768Z,1.50
2024-03-24T06:11:51.814Z,1.30
2024-03-24T06:12:51.865Z,1.30
2024-03-24T06:13:51.907Z,1.50
2024-03-24T06:14:51.955Z,1.50
2024-03-24T06:15:52.001Z,1.30
2024-03-24T06:16:52.050Z,1.20
2024-03-24T06:17:52.098Z,1.40
2024-03-24T06:18:52.151Z,1.40
2024-03-24T06:19:52.208Z,1.50
2024-03-24T06:20:52.256Z,1.60
2024-03-24T06:21:52.297Z,1.50
2024-03-24T06:22:52.343Z,1.50
2024-03-24T06:23:52.403Z,1.50
2024-03-24T06:24:52.445Z,1.60
2024-03-24T06:25:52.504Z,1.90
2024-03-24T06:26:52.546Z,1.20
2024-03-24T06:27:52.593Z,1.30
2024-03-24T06:28:52.644Z,1.30
2024-03-24T06:29:52.701Z,1.40
2024-03-24T06:30:52.740Z,1.60
2024-03-24T06:31:52.783Z,1.30
2024-03-24T06:32:52.834Z,1.60
2024-03-24T06:33:52.886Z,1.50
2024-03-24T06:34:52.936Z,1.80
2024-03-24T06:35:53.012Z,1.90
2024-03-24T06:36:53.028Z,1.50
2024-03-24T06:37:53.097Z,1.50
2024-03-24T06:38:53.128Z,1.70
2024-03-24T06:39:53.181Z,1.20
2024-03-24T06:40:53.223Z,1.50
2024-03-24T06:41:53.279Z,1.50
2024-03-24T06:42:53.331Z,1.70
2024-03-24T06:43:53.372Z,1.50
2024-03-24T06:44:53.418Z,1.60
2024-03-24T06:45:53.479Z,1.80
2024-03-24T06:46:53.521Z,1.90
2024-03-24T06:47:53.570Z,1.60
2024-03-24T06:48:53.620Z,1.90
2024-03-24T06:49:53.668Z,1.60
2024-03-24T06:50:53.717Z,1.30
2024-03-24T06:51:53.766Z,1.90
2024-03-24T06:52:53.819Z,1.50
2024-03-24T06:53:53.867Z,1.70
2024-03-24T06:54:53.916Z,1.90
2024-03-24T06:55:53.975Z,1.50
2024-03-24T06:56:54.021Z,1.50
2024-03-24T06:57:54.076Z,1.50
2024-03-24T06:58:54.115Z,1.70
2024-03-24T06:59:54.162Z,1.60
2024-03-24T07:00:54.213Z,1.80
2024-03-24T07:01:54.267Z,1.60
2024-03-24T07:02:54.311Z,1.60
2024-03-24T07:03:54.381Z,1.90
2024-03-24T07:04:54.443Z,1.70
2024-03-24T07:05:54.463Z,1.60
2024-03-24T07:06:54.505Z,1.80
2024-03-24T07:07:54.557Z,1.40
2024-03-24T07:08:54.611Z,1.80
2024-03-24T07:09:54.660Z,1.60
2024-03-24T07:10:54.705Z,1.90
2024-03-24T07:11:54.819Z,1.80
2024-03-24T07:12:54.811Z,1.90
2024-03-24T07:13:54.879Z,1.90
2024-03-24T07:14:54.919Z,1.60
2024-03-24T07:15:54.959Z,2.00
2024-03-24T07:16:55.012Z,1.40
2024-03-24T07:17:55.054Z,1.70
2024-03-24T07:18:55.110Z,1.50
2024-03-24T07:19:55.153Z,1.60
2024-03-24T07:20:55.204Z,1.50
2024-03-24T07:21:55.273Z,1.60
2024-03-24T07:22:55.310Z,2.00
2024-03-24T07:23:55.366Z,1.50
2024-03-24T07:24:55.403Z,1.60
2024-03-24T07:25:55.453Z,1.40
2024-03-24T07:26:55.507Z,1.50
2024-03-24T07:27:55.565Z,1.90
2024-03-24T07:28:55.606Z,1.60
2024-03-24T07:29:55.682Z,2.00
2024-03-24T07:30:55.711Z,1.70
2024-03-24T07:31:55.755Z,1.80
2024-03-24T07:32:55.806Z,1.70
2024-03-24T07:33:55.876Z,1.70
2024-03-24T07:34:55.927Z,1.50
2024-03-24T07:35:55.959Z,1.50
2024-03-24T07:36:56.015Z,1.50
2024-03-24T07:37:56.058Z,1.90
2024-03-24T07:38:56.107Z,1.80
2024-03-24T07:39:56.161Z,1.50
2024-03-24T07:40:56.205Z,1.40
2024-03-24T07:41:56.273Z,1.50
2024-03-24T07:42:56.339Z,2.10
2024-03-24T07:43:56.368Z,1.60
2024-03-24T07:44:56.409Z,1.50
2024-03-24T07:45:56.472Z,1.80
2024-03-24T07:46:56.535Z,1.70
2024-03-24T07:47:56.565Z,1.50
2024-03-24T07:48:56.648Z,1.80
2024-03-24T07:49:56.666Z,1.90
2024-03-24T07:50:56.717Z,1.60
2024-03-24T07:51:56.762Z,1.60
2024-03-24T07:52:58.031Z,1.50
2024-03-24T07:53:56.870Z,1.60
2024-03-24T07:54:56.957Z,1.70
2024-03-24T07:55:56.966Z,1.40
2024-03-24T07:56:57.027Z,1.30
2024-03-24T07:57:57.086Z,1.30
2024-03-24T07:58:57.117Z,1.50
2024-03-24T07:59:57.177Z,1.20
2024-03-24T08:00:57.231Z,1.50
2024-03-24T08:01:57.290Z,1.30
2024-03-24T08:02:57.328Z,1.60
2024-03-24T08:03:57.381Z,1.30
2024-03-24T08:04:57.443Z,1.20
2024-03-24T08:05:57.480Z,1.40
2024-03-24T08:06:57.536Z,1.30
2024-03-24T08:07:57.585Z,1.40
2024-03-24T08:08:57.637Z,1.20
2024-03-24T08:09:57.697Z,1.40
2024-03-24T08:10:57.741Z,1.30
2024-03-24T08:11:57.793Z,1.70
2024-03-24T08:12:57.844Z,1.20
2024-03-24T08:13:57.917Z,1.40
2024-03-24T08:14:57.958Z,1.30
2024-03-24T08:15:58.003Z,1.10
2024-03-24T08:16:58.073Z,1.20
2024-03-24T08:17:58.128Z,1.30
2024-03-24T08:18:58.182Z,1.50
2024-03-24T08:19:58.203Z,1.30
2024-03-24T08:20:58.266Z,1.40
2024-03-24T08:21:58.300Z,1.30
2024-03-24T08:22:58.352Z,1.90
2024-03-24T08:23:58.400Z,1.40
2024-03-24T08:24:58.458Z,1.70
2024-03-24T08:25:58.520Z,1.20
2024-03-24T08:26:58.564Z,1.60
2024-03-24T08:27:58.610Z,1.60
2024-03-24T08:28:58.683Z,1.30
2024-03-24T08:29:58.713Z,1.30
2024-03-24T08:30:58.769Z,1.40
2024-03-24T08:31:58.823Z,1.40
2024-03-24T08:32:58.873Z,1.30
2024-03-24T08:33:58.934Z,1.30
2024-03-24T08:34:58.989Z,1.40
2024-03-24T08:35:59.030Z,1.20
2024-03-24T08:36:59.082Z,1.20
2024-03-24T08:37:59.136Z,1.20
2024-03-24T08:38:59.185Z,1.00
2024-03-24T08:39:59.240Z,1.10
2024-03-24T08:40:59.288Z,1.40
2024-03-24T08:42:02.626Z,1.20
2024-03-24T08:42:59.400Z,1.10
2024-03-24T08:43:59.441Z,1.50
2024-03-24T08:44:59.497Z,1.30
2024-03-24T08:45:59.548Z,1.40
2024-03-24T08:46:59.596Z,1.40
2024-03-24T08:47:59.655Z,1.40
2024-03-24T08:48:59.714Z,1.30
2024-03-24T08:49:59.786Z,1.40
2024-03-24T08:50:59.811Z,1.50
2024-03-24T08:51:59.855Z,1.10
2024-03-24T08:52:59.915Z,1.70
2024-03-24T08:53:59.965Z,1.40
2024-03-24T08:55:00.015Z,1.30
2024-03-24T08:56:00.065Z,1.50
2024-03-24T08:57:00.120Z,1.70
2024-03-24T08:58:00.176Z,1.30
2024-03-24T08:59:00.232Z,1.60
2024-03-24T09:00:00.363Z,1.90
2024-03-24T09:01:00.331Z,1.80
2024-03-24T09:02:00.385Z,1.60
2024-03-24T09:03:00.538Z,1.80
2024-03-24T09:04:00.567Z,1.40
2024-03-24T09:05:00.638Z,1.80
2024-03-24T09:06:00.620Z,1.60
2024-03-24T09:07:00.643Z,2.30
2024-03-24T09:08:00.696Z,1.80
2024-03-24T09:09:00.754Z,1.90
2024-03-24T09:10:00.805Z,1.50
2024-03-24T09:11:00.853Z,1.60
2024-03-24T09:12:00.912Z,1.30
2024-03-24T09:13:00.957Z,1.60
2024-03-24T09:14:01.024Z,1.70
2024-03-24T09:15:01.067Z,2.00
2024-03-24T09:16:01.130Z,1.70
2024-03-24T09:17:01.167Z,1.60
2024-03-24T09:18:01.234Z,2.10
2024-03-24T09:19:01.283Z,1.80
2024-03-24T09:20:01.329Z,1.50
2024-03-24T09:21:01.388Z,1.80
2024-03-24T09:22:01.452Z,1.40
2024-03-24T09:23:01.491Z,1.70
2024-03-24T09:24:01.553Z,1.60
2024-03-24T09:25:01.610Z,1.80
2024-03-24T09:26:01.645Z,1.50
2024-03-24T09:27:01.713Z,1.40
2024-03-24T09:28:01.761Z,1.30
2024-03-24T09:29:01.813Z,1.50
2024-03-24T09:30:01.861Z,1.80
2024-03-24T09:31:01.916Z,1.10
2024-03-24T09:32:01.982Z,1.20
2024-03-24T09:33:02.020Z,1.20
2024-03-24T09:34:02.082Z,1.30
2024-03-24T09:35:08.664Z,1.60
2024-03-24T09:36:02.180Z,1.10
2024-03-24T09:37:02.231Z,1.60
2024-03-24T09:38:02.306Z,1.70
2024-03-24T09:39:02.338Z,1.50
2024-03-24T09:40:02.392Z,1.50
2024-03-24T09:41:02.445Z,1.40
2024-03-24T09:42:02.494Z,1.60
2024-03-24T09:43:02.579Z,1.40
2024-03-24T09:44:02.598Z,1.50
2024-03-24T09:45:02.652Z,1.70
2024-03-24T09:46:02.711Z,1.50
2024-03-24T09:47:02.776Z,1.70
2024-03-24T09:48:02.808Z,1.30
2024-03-24T09:49:02.866Z,1.50
2024-03-24T09:50:02.920Z,1.80
2024-03-24T09:51:02.969Z,1.80
2024-03-24T09:52:03.018Z,1.20
2024-03-24T09:53:03.072Z,1.20
2024-03-24T09:54:03.146Z,1.30
2024-03-24T09:55:03.181Z,1.60
2024-03-24T09:56:03.233Z,1.20
2024-03-24T09:57:03.289Z,1.40
2024-03-24T09:58:10.522Z,1.40
2024-03-24T09:59:03.391Z,1.70
2024-03-24T10:00:03.441Z,1.40
2024-03-24T10:01:03.493Z,1.30
2024-03-24T10:02:03.553Z,1.30
2024-03-24T10:03:03.600Z,1.20
2024-03-24T10:04:03.651Z,1.30
2024-03-24T10:05:03.708Z,1.50
2024-03-24T10:06:03.774Z,1.20
2024-03-24T10:07:03.815Z,1.10
2024-03-24T10:08:03.867Z,1.00
2024-03-24T10:09:03.927Z,1.00
2024-03-24T10:10:03.980Z,1.00
2024-03-24T10:11:04.032Z,0.80
2024-03-24T10:12:04.078Z,1.00
2024-03-24T10:13:04.124Z,1.10
2024-03-24T10:14:04.180Z,1.30
2024-03-24T10:15:04.233Z,1.20
2024-03-24T10:16:04.311Z,0.90
2024-03-24T10:17:04.339Z,0.90
2024-03-24T10:18:04.398Z,0.70
2024-03-24T10:19:04.439Z,0.90
2024-03-24T10:20:04.495Z,1.10
2024-03-24T10:21:04.549Z,1.20
2024-03-24T10:22:04.617Z,1.00
2024-03-24T10:23:04.667Z,0.90
2024-03-24T10:24:04.707Z,1.00
2024-03-24T10:25:04.760Z,0.90
2024-03-24T10:26:04.838Z,0.80
2024-03-24T10:27:04.880Z,0.90
2024-03-24T10:28:04.923Z,0.90
2024-03-24T10:29:04.982Z,0.70
2024-03-24T10:30:05.026Z,1.10
2024-03-24T10:31:05.079Z,1.10
2024-03-24T10:32:08.858Z,0.90
2024-03-24T10:33:05.190Z,1.10
2024-03-24T10:34:05.245Z,1.20
2024-03-24T10:35:05.297Z,0.80
2024-03-24T10:36:05.350Z,1.10
2024-03-24T10:37:05.403Z,1.00
2024-03-24T10:38:05.460Z,1.00
2024-03-24T10:39:05.513Z,0.70
2024-03-24T10:40:05.564Z,0.70
2024-03-24T10:41:05.621Z,1.10
2024-03-24T10:42:05.684Z,1.00
2024-03-24T10:43:05.727Z,0.80
2024-03-24T10:44:05.798Z,1.00
2024-03-24T10:45:05.835Z,1.00
2024-03-24T10:46:05.888Z,1.00
2024-03-24T10:47:05.941Z,0.90
2024-03-24T10:48:05.996Z,1.00
2024-03-24T10:49:06.051Z,1.00
2024-03-24T10:50:06.104Z,1.00
2024-03-24T10:51:06.161Z,1.40
2024-03-24T10:52:06.210Z,1.10
2024-03-24T10:53:06.267Z,1.50
2024-03-24T10:54:06.322Z,1.20
2024-03-24T10:55:06.383Z,1.80
2024-03-24T10:56:06.441Z,1.10
2024-03-24T10:57:06.479Z,1.00
2024-03-24T10:58:06.547Z,0.80
2024-03-24T10:59:08.354Z,1.10
2024-03-24T11:00:06.642Z,1.20
2024-03-24T11:01:06.699Z,1.40
2024-03-24T11:02:06.751Z,1.10
2024-03-24T11:03:06.804Z,1.20
2024-03-24T11:04:06.860Z,1.00
2024-03-24T11:05:06.926Z,1.10
2024-03-24T11:06:06.967Z,1.00
2024-03-24T11:07:07.027Z,1.40
2024-03-24T11:08:07.076Z,1.80
2024-03-24T11:09:07.128Z,1.10
2024-03-24T11:10:07.189Z,1.20
2024-03-24T11:11:07.235Z,1.20
2024-03-24T11:12:07.286Z,1.60
2024-03-24T11:13:07.343Z,1.20
2024-03-24T11:14:07.414Z,1.20
2024-03-24T11:15:07.450Z,1.30
2024-03-24T11:16:07.507Z,1.20
2024-03-24T11:17:07.560Z,1.50
2024-03-24T11:18:07.615Z,1.30
2024-03-24T11:19:07.666Z,1.20
2024-03-24T11:20:07.719Z,1.30
2024-03-24T11:21:07.775Z,0.90
2024-03-24T11:22:07.828Z,1.30
2024-03-24T11:23:07.888Z,1.30
2024-03-24T11:24:07.934Z,1.70
2024-03-24T11:25:07.998Z,1.40
2024-03-24T11:26:08.044Z,1.20
2024-03-24T11:27:08.095Z,0.90
2024-03-24T11:28:08.150Z,1.20
2024-03-24T11:29:08.201Z,0.70
2024-03-24T11:30:08.263Z,1.10
2024-03-24T11:31:08.299Z,0.80
2024-03-24T11:32:08.362Z,0.70
2024-03-24T11:33:08.409Z,0.60
2024-03-24T11:34:08.460Z,1.10
2024-03-24T11:35:08.517Z,0.70
2024-03-24T11:36:08.562Z,0.80
2024-03-24T11:37:08.620Z,1.10
2024-03-24T11:38:08.662Z,0.90
2024-03-24T11:39:08.712Z,1.00
2024-03-24T11:40:08.771Z,1.30
2024-03-24T11:41:08.817Z,0.90
2024-03-24T11:42:08.869Z,0.70
2024-03-24T11:43:08.945Z,0.70
2024-03-24T11:44:08.972Z,0.60
2024-03-24T11:45:09.028Z,0.90
2024-03-24T11:46:09.112Z,0.80
2024-03-24T11:47:09.151Z,0.60
2024-03-24T11:48:09.182Z,0.90
2024-03-24T11:49:09.237Z,1.00
2024-03-24T11:50:09.289Z,0.80
2024-03-24T11:51:09.352Z,0.90
2024-03-24T11:52:09.392Z,1.00
2024-03-24T11:53:09.453Z,1.10
2024-03-24T11:54:09.501Z,1.00
2024-03-24T11:55:09.550Z,0.80
2024-03-24T11:56:09.601Z,1.10
2024-03-24T11:57:09.657Z,1.40
2024-03-24T11:58:09.711Z,0.80
2024-03-24T11:59:09.765Z,0.90
2024-03-24T12:00:09.825Z,0.90
2024-03-24T12:01:09.874Z,1.40
2024-03-24T12:02:09.941Z,1.10
2024-03-24T12:03:09.982Z,1.00
2024-03-24T12:04:10.043Z,1.40
2024-03-24T12:05:10.094Z,0.90
2024-03-24T12:06:10.155Z,1.00
2024-03-24T12:07:10.207Z,1.00
2024-03-24T12:08:10.271Z,1.30
2024-03-24T12:09:10.322Z,1.20
2024-03-24T12:10:10.382Z,1.50
2024-03-24T12:11:10.436Z,1.40
2024-03-24T12:12:10.490Z,1.10
2024-03-24T12:13:10.551Z,1.40
2024-03-24T12:14:10.606Z,1.40
2024-03-24T12:15:10.663Z,1.70
2024-03-24T12:16:10.720Z,2.30
2024-03-24T12:17:11.606Z,1.50
2024-03-24T12:18:10.843Z,1.60
2024-03-24T12:19:10.893Z,1.80
2024-03-24T12:20:10.939Z,1.50
2024-03-24T12:21:11.012Z,1.50
2024-03-24T12:22:11.054Z,1.30
2024-03-24T12:23:13.959Z,1.50
2024-03-24T12:24:11.163Z,1.50
2024-03-24T12:25:12.243Z,1.20
2024-03-24T12:26:11.278Z,1.10
2024-03-24T12:27:11.336Z,0.90
2024-03-24T12:28:11.393Z,1.40
2024-03-24T12:29:11.444Z,0.90
2024-03-24T12:30:11.494Z,0.80
2024-03-24T12:31:11.556Z,1.20
2024-03-24T12:32:11.614Z,1.20
2024-03-24T12:33:11.671Z,1.10
2024-03-24T12:34:11.739Z,1.20
2024-03-24T12:35:11.777Z,0.90
2024-03-24T12:36:11.837Z,0.90
2024-03-24T12:37:11.892Z,1.10
2024-03-24T12:38:11.950Z,1.20
2024-03-24T12:39:12.014Z,1.10
2024-03-24T12:40:12.069Z,0.90
2024-03-24T12:41:12.235Z,1.20
2024-03-24T12:42:12.223Z,1.30
2024-03-24T12:43:12.307Z,1.20
2024-03-24T12:44:12.287Z,0.90
2024-03-24T12:45:12.347Z,1.70
2024-03-24T12:46:12.401Z,1.30
2024-03-24T12:47:12.462Z,1.10
2024-03-24T12:48:12.519Z,0.70
2024-03-24T12:49:12.577Z,1.20
2024-03-24T12:50:23.399Z,1.10
2024-03-24T12:51:12.695Z,0.90
2024-03-24T12:52:12.755Z,0.80
2024-03-24T12:53:12.798Z,1.20
2024-03-24T12:54:12.875Z,1.30
2024-03-24T12:55:12.916Z,1.50
2024-03-24T12:56:12.976Z,2.30
2024-03-24T12:57:13.024Z,1.30
2024-03-24T12:58:13.080Z,1.20
2024-03-24T12:59:13.137Z,1.00
2024-03-24T13:00:13.208Z,1.10
2024-03-24T13:01:13.253Z,1.40
2024-03-24T13:02:13.315Z,1.10
2024-03-24T13:03:13.359Z,1.00
2024-03-24T13:04:13.775Z,1.20
2024-03-24T13:05:13.486Z,1.20
2024-03-24T13:06:13.535Z,1.60
2024-03-24T13:07:13.571Z,1.30
2024-03-24T13:08:13.626Z,1.30
2024-03-24T13:09:13.681Z,1.30
2024-03-24T13:10:13.737Z,1.10
2024-03-24T13:11:21.782Z,1.10
2024-03-24T13:12:13.847Z,1.00
2024-03-24T13:13:13.899Z,1.50
2024-03-24T13:14:13.956Z,1.40
2024-03-24T13:15:14.010Z,1.40
2024-03-24T13:16:14.068Z,1.60
2024-03-24T13:17:14.120Z,1.10
2024-03-24T13:18:14.201Z,1.40
2024-03-24T13:19:14.239Z,1.20